NOZ104 ENBR-ENEV
Flight info
| Callsign | NOZ104 |
|---|---|
| Flight time | 1h 44m |
| Altitude | 35000 |
| Route | INTUM DCT PENNO |
| Aircraft | B738/M-SDE2E3FGHIRWXY/LB1 |
Departure
| Time | 2026-04-26 11:46 |
|---|---|
| Airport | Bergen Airport, Flesland (ENBR) |
Arrival
| Time | 2026-04-26 13:30 |
|---|---|
| Airport | Harstad/Narvik Airport (ENEV) |
| Time | Latitude | Longitude | Altitude | Speed | Heading |
|---|---|---|---|---|---|
| 2026-04-26 11:24 | 60.28700 | 5.22916 | 172 ft | 0 kts | 80° |
| 2026-04-26 11:37 | 60.28696 | 5.22872 | 172 ft | 3 kts | 80° |
| 2026-04-26 11:37 | 60.28693 | 5.22829 | 172 ft | 4 kts | 80° |
| 2026-04-26 11:37 | 60.28691 | 5.22809 | 172 ft | 0 kts | 80° |
| 2026-04-26 11:40 | 60.28693 | 5.22812 | 172 ft | 1 kts | 56° |
| 2026-04-26 11:40 | 60.28715 | 5.22778 | 171 ft | 10 kts | 304° |
| 2026-04-26 11:41 | 60.28716 | 5.22617 | 168 ft | 13 kts | 261° |
| 2026-04-26 11:42 | 60.28280 | 5.22386 | 153 ft | 0 kts | 261° |
| 2026-04-26 11:43 | 60.28280 | 5.22377 | 153 ft | 2 kts | 265° |
| 2026-04-26 11:44 | 60.28277 | 5.22319 | 153 ft | 7 kts | 265° |
| 2026-04-26 11:44 | 60.28274 | 5.22196 | 155 ft | 5 kts | 282° |
| 2026-04-26 11:44 | 60.28293 | 5.22167 | 157 ft | 0 kts | 350° |
| 2026-04-26 11:45 | 60.28295 | 5.22166 | 157 ft | 2 kts | 350° |
| 2026-04-26 11:45 | 60.28522 | 5.22091 | 162 ft | 72 kts | 351° |
| 2026-04-26 11:45 | 60.29270 | 5.21843 | 156 ft | 143 kts | 351° |
| 2026-04-26 11:45 | 60.30336 | 5.21493 | 741 ft | 155 kts | 352° |
| 2026-04-26 11:46 | 60.31398 | 5.21167 | 1813 ft | 153 kts | 350° |
| 2026-04-26 11:46 | 60.32503 | 5.20820 | 2468 ft | 174 kts | 349° |
| 2026-04-26 11:46 | 60.33808 | 5.20397 | 2772 ft | 205 kts | 350° |
| 2026-04-26 11:46 | 60.35275 | 5.19915 | 3311 ft | 219 kts | 351° |
| 2026-04-26 11:47 | 60.36868 | 5.19383 | 3637 ft | 244 kts | 351° |
| 2026-04-26 11:47 | 60.38575 | 5.18804 | 4464 ft | 252 kts | 350° |
| 2026-04-26 11:47 | 60.40296 | 5.18213 | 5501 ft | 250 kts | 350° |
| 2026-04-26 11:47 | 60.42018 | 5.17618 | 6435 ft | 252 kts | 349° |
| 2026-04-26 11:48 | 60.43740 | 5.17017 | 7415 ft | 251 kts | 349° |
| 2026-04-26 11:48 | 60.45476 | 5.16409 | 8267 ft | 255 kts | 348° |
| 2026-04-26 11:48 | 60.47239 | 5.15791 | 9116 ft | 259 kts | 348° |
| 2026-04-26 11:48 | 60.49052 | 5.15664 | 9923 ft | 269 kts | 9° |
| 2026-04-26 11:49 | 60.50819 | 5.17115 | 10672 ft | 281 kts | 25° |
| 2026-04-26 11:49 | 60.52543 | 5.19345 | 10919 ft | 308 kts | 30° |
| 2026-04-26 11:49 | 60.54356 | 5.21975 | 11172 ft | 331 kts | 32° |
| 2026-04-26 11:49 | 60.56237 | 5.24779 | 11730 ft | 341 kts | 32° |
| 2026-04-26 11:50 | 60.58167 | 5.27660 | 12477 ft | 345 kts | 32° |
| 2026-04-26 11:50 | 60.60115 | 5.30549 | 13256 ft | 349 kts | 31° |
| 2026-04-26 11:50 | 60.62098 | 5.33466 | 13993 ft | 354 kts | 31° |
| 2026-04-26 11:50 | 60.64105 | 5.36403 | 14646 ft | 358 kts | 31° |
| 2026-04-26 11:51 | 60.66142 | 5.39372 | 15359 ft | 360 kts | 31° |
| 2026-04-26 11:51 | 60.68187 | 5.42353 | 16066 ft | 363 kts | 31° |
| 2026-04-26 11:51 | 60.70258 | 5.45371 | 16708 ft | 368 kts | 31° |
| 2026-04-26 11:51 | 60.72354 | 5.48429 | 17350 ft | 373 kts | 31° |
| 2026-04-26 11:52 | 60.74451 | 5.51490 | 17982 ft | 377 kts | 31° |
| 2026-04-26 11:52 | 60.76594 | 5.54625 | 18581 ft | 381 kts | 31° |
| 2026-04-26 11:52 | 60.78764 | 5.57802 | 19097 ft | 386 kts | 31° |
| 2026-04-26 11:52 | 60.80957 | 5.61022 | 19640 ft | 389 kts | 31° |
| 2026-04-26 11:53 | 60.83160 | 5.64263 | 20208 ft | 391 kts | 31° |
| 2026-04-26 11:53 | 60.85383 | 5.67539 | 20747 ft | 395 kts | 31° |
| 2026-04-26 11:53 | 60.87625 | 5.70846 | 21286 ft | 399 kts | 31° |
| 2026-04-26 11:54 | 60.92167 | 5.77566 | 22342 ft | 406 kts | 30° |
| 2026-04-26 11:54 | 60.94464 | 5.80973 | 22877 ft | 409 kts | 30° |
| 2026-04-26 11:54 | 60.96780 | 5.84411 | 23415 ft | 411 kts | 30° |
| 2026-04-26 11:54 | 60.99185 | 5.87593 | 23888 ft | 411 kts | 24° |
| 2026-04-26 11:55 | 61.01695 | 5.90422 | 24296 ft | 412 kts | 22° |
| 2026-04-26 11:55 | 61.04256 | 5.93132 | 24733 ft | 414 kts | 21° |
| 2026-04-26 11:55 | 61.06829 | 5.95818 | 25175 ft | 415 kts | 21° |
| 2026-04-26 11:55 | 61.09413 | 5.98538 | 25613 ft | 418 kts | 21° |
| 2026-04-26 11:56 | 61.12001 | 6.01299 | 26025 ft | 421 kts | 22° |
| 2026-04-26 11:56 | 61.14602 | 6.04111 | 26420 ft | 423 kts | 22° |
| 2026-04-26 11:56 | 61.17208 | 6.06959 | 26819 ft | 425 kts | 22° |
| 2026-04-26 11:56 | 61.19826 | 6.09841 | 27202 ft | 427 kts | 23° |
| 2026-04-26 11:57 | 61.22450 | 6.12746 | 27599 ft | 429 kts | 22° |
| 2026-04-26 11:57 | 61.25089 | 6.15676 | 27977 ft | 431 kts | 22° |
| 2026-04-26 11:57 | 61.27738 | 6.18624 | 28322 ft | 433 kts | 23° |
| 2026-04-26 11:57 | 61.30398 | 6.21591 | 28705 ft | 435 kts | 23° |
| 2026-04-26 11:58 | 61.33069 | 6.24576 | 29056 ft | 437 kts | 23° |
| 2026-04-26 11:58 | 61.35750 | 6.27578 | 29356 ft | 439 kts | 23° |
| 2026-04-26 11:58 | 61.38448 | 6.30604 | 29760 ft | 440 kts | 23° |
| 2026-04-26 11:58 | 61.41136 | 6.33626 | 30280 ft | 437 kts | 23° |
| 2026-04-26 11:59 | 61.43802 | 6.36632 | 30731 ft | 435 kts | 23° |
| 2026-04-26 11:59 | 61.46457 | 6.39629 | 31095 ft | 434 kts | 23° |
| 2026-04-26 11:59 | 61.49113 | 6.42632 | 31430 ft | 434 kts | 24° |
| 2026-04-26 11:59 | 61.51770 | 6.45639 | 31780 ft | 434 kts | 24° |
| 2026-04-26 12:00 | 61.54423 | 6.48648 | 32160 ft | 433 kts | 24° |
| 2026-04-26 12:00 | 61.57068 | 6.51656 | 32541 ft | 432 kts | 24° |
| 2026-04-26 12:00 | 61.59703 | 6.54658 | 32888 ft | 431 kts | 24° |
| 2026-04-26 12:00 | 61.62339 | 6.57665 | 33198 ft | 431 kts | 24° |
| 2026-04-26 12:01 | 61.64982 | 6.60686 | 33479 ft | 432 kts | 24° |
| 2026-04-26 12:01 | 61.67612 | 6.63699 | 33841 ft | 430 kts | 24° |
| 2026-04-26 12:01 | 61.70235 | 6.66711 | 34232 ft | 429 kts | 24° |
| 2026-04-26 12:01 | 61.72848 | 6.69717 | 34503 ft | 428 kts | 24° |
| 2026-04-26 12:02 | 61.75470 | 6.72738 | 34723 ft | 429 kts | 24° |
| 2026-04-26 12:02 | 61.77201 | 6.74736 | 34893 ft | 429 kts | 24° |
| 2026-04-26 12:02 | 61.80691 | 6.78772 | 35296 ft | 427 kts | 24° |
| 2026-04-26 12:03 | 61.85941 | 6.84858 | 35309 ft | 432 kts | 24° |
| 2026-04-26 12:03 | 61.91196 | 6.90983 | 35370 ft | 427 kts | 24° |
| 2026-04-26 12:04 | 61.96382 | 6.97052 | 35366 ft | 425 kts | 24° |
| 2026-04-26 12:04 | 62.01552 | 7.03122 | 35363 ft | 425 kts | 24° |
| 2026-04-26 12:05 | 62.06728 | 7.09220 | 35358 ft | 425 kts | 24° |
| 2026-04-26 12:05 | 62.11908 | 7.15348 | 35340 ft | 426 kts | 24° |
| 2026-04-26 12:06 | 62.17087 | 7.21501 | 35327 ft | 425 kts | 25° |
| 2026-04-26 12:06 | 62.22257 | 7.27669 | 35328 ft | 426 kts | 24° |
| 2026-04-26 12:07 | 62.27434 | 7.33867 | 35313 ft | 426 kts | 24° |
| 2026-04-26 12:07 | 62.32604 | 7.40083 | 35309 ft | 425 kts | 24° |
| 2026-04-26 12:08 | 62.37760 | 7.46307 | 35320 ft | 424 kts | 24° |
| 2026-04-26 12:08 | 62.42869 | 7.52499 | 35300 ft | 423 kts | 24° |
| 2026-04-26 12:09 | 62.48017 | 7.58764 | 35325 ft | 421 kts | 24° |
| 2026-04-26 12:09 | 62.53087 | 7.64956 | 35314 ft | 421 kts | 24° |
| 2026-04-26 12:10 | 62.58175 | 7.71195 | 35295 ft | 420 kts | 24° |
| 2026-04-26 12:10 | 62.63246 | 7.77438 | 35312 ft | 419 kts | 24° |
| 2026-04-26 12:11 | 62.68314 | 7.83700 | 35303 ft | 419 kts | 24° |
| 2026-04-26 12:11 | 62.73380 | 7.89987 | 35304 ft | 419 kts | 24° |
| 2026-04-26 12:12 | 62.78445 | 7.96298 | 35293 ft | 419 kts | 24° |
| 2026-04-26 12:12 | 62.83502 | 8.02624 | 35306 ft | 419 kts | 24° |
| 2026-04-26 12:13 | 62.88562 | 8.08978 | 35304 ft | 420 kts | 24° |
| 2026-04-26 12:13 | 62.93632 | 8.15370 | 35315 ft | 421 kts | 24° |
| 2026-04-26 12:14 | 62.98701 | 8.21790 | 35313 ft | 420 kts | 24° |
| 2026-04-26 12:14 | 63.03755 | 8.28217 | 35315 ft | 419 kts | 24° |
| 2026-04-26 12:15 | 63.08812 | 8.34669 | 35310 ft | 420 kts | 24° |
| 2026-04-26 12:15 | 63.13860 | 8.41139 | 35302 ft | 419 kts | 24° |
| 2026-04-26 12:16 | 63.18895 | 8.47619 | 35330 ft | 418 kts | 23° |
| 2026-04-26 12:16 | 63.23065 | 8.53006 | 35295 ft | 417 kts | 23° |
| 2026-04-26 12:17 | 63.28064 | 8.59488 | 35283 ft | 415 kts | 23° |
| 2026-04-26 12:17 | 63.33039 | 8.65963 | 35284 ft | 413 kts | 23° |
| 2026-04-26 12:18 | 63.37990 | 8.72435 | 35298 ft | 411 kts | 23° |
| 2026-04-26 12:18 | 63.42921 | 8.78904 | 35286 ft | 411 kts | 23° |
| 2026-04-26 12:19 | 63.47847 | 8.85392 | 35318 ft | 411 kts | 23° |
| 2026-04-26 12:19 | 63.52776 | 8.91911 | 35296 ft | 411 kts | 23° |
| 2026-04-26 12:20 | 63.57696 | 8.98446 | 35285 ft | 411 kts | 23° |
| 2026-04-26 12:20 | 63.62622 | 9.05015 | 35283 ft | 412 kts | 23° |
| 2026-04-26 12:21 | 63.67547 | 9.11610 | 35274 ft | 412 kts | 23° |
| 2026-04-26 12:21 | 63.72468 | 9.18226 | 35293 ft | 412 kts | 23° |
| 2026-04-26 12:22 | 63.77392 | 9.24874 | 35300 ft | 413 kts | 23° |
| 2026-04-26 12:22 | 63.82324 | 9.31560 | 35296 ft | 413 kts | 23° |
| 2026-04-26 12:23 | 63.87258 | 9.38277 | 35291 ft | 413 kts | 23° |
| 2026-04-26 12:23 | 63.92182 | 9.45008 | 35291 ft | 413 kts | 23° |
| 2026-04-26 12:24 | 63.97102 | 9.51762 | 35279 ft | 413 kts | 23° |
| 2026-04-26 12:24 | 64.02010 | 9.58529 | 35274 ft | 412 kts | 23° |
| 2026-04-26 12:25 | 64.09349 | 9.68696 | 35277 ft | 411 kts | 23° |
| 2026-04-26 12:25 | 64.14227 | 9.75490 | 35271 ft | 410 kts | 23° |
| 2026-04-26 12:26 | 64.19090 | 9.82291 | 35266 ft | 409 kts | 23° |
| 2026-04-26 12:26 | 64.23940 | 9.89102 | 35261 ft | 408 kts | 23° |
| 2026-04-26 12:27 | 64.28745 | 9.95877 | 35256 ft | 408 kts | 23° |
| 2026-04-26 12:27 | 64.33576 | 10.02718 | 35259 ft | 407 kts | 23° |
| 2026-04-26 12:28 | 64.38401 | 10.09577 | 35256 ft | 408 kts | 24° |
| 2026-04-26 12:28 | 64.43235 | 10.16478 | 35260 ft | 408 kts | 24° |
| 2026-04-26 12:29 | 64.48068 | 10.23407 | 35255 ft | 409 kts | 24° |
| 2026-04-26 12:30 | 64.55316 | 10.33854 | 35251 ft | 410 kts | 24° |
| 2026-04-26 12:30 | 64.60158 | 10.40871 | 35249 ft | 410 kts | 24° |
| 2026-04-26 12:31 | 64.67438 | 10.51475 | 35251 ft | 412 kts | 24° |
| 2026-04-26 12:31 | 64.72299 | 10.58597 | 35272 ft | 413 kts | 24° |
| 2026-04-26 12:32 | 64.77167 | 10.65757 | 35250 ft | 413 kts | 24° |
| 2026-04-26 12:33 | 64.84463 | 10.76550 | 35239 ft | 413 kts | 24° |
| 2026-04-26 12:33 | 64.89320 | 10.83773 | 35242 ft | 413 kts | 24° |
| 2026-04-26 12:34 | 64.94176 | 10.91023 | 35246 ft | 414 kts | 24° |
| 2026-04-26 12:34 | 64.99039 | 10.98318 | 35239 ft | 414 kts | 24° |
| 2026-04-26 12:35 | 65.03883 | 11.05618 | 35236 ft | 413 kts | 24° |
| 2026-04-26 12:35 | 65.08716 | 11.12933 | 35229 ft | 412 kts | 24° |
| 2026-04-26 12:36 | 65.13535 | 11.20257 | 35227 ft | 411 kts | 24° |
| 2026-04-26 12:36 | 65.18339 | 11.27589 | 35223 ft | 410 kts | 24° |
| 2026-04-26 12:37 | 65.23110 | 11.34902 | 35214 ft | 410 kts | 24° |
| 2026-04-26 12:37 | 65.27934 | 11.42330 | 35210 ft | 410 kts | 24° |
| 2026-04-26 12:38 | 65.32693 | 11.49688 | 35209 ft | 410 kts | 24° |
| 2026-04-26 12:38 | 65.37479 | 11.57123 | 35207 ft | 410 kts | 24° |
| 2026-04-26 12:39 | 65.42263 | 11.64587 | 35202 ft | 410 kts | 24° |
| 2026-04-26 12:39 | 65.47041 | 11.72073 | 35201 ft | 410 kts | 24° |
| 2026-04-26 12:40 | 65.51831 | 11.79611 | 35210 ft | 412 kts | 24° |
| 2026-04-26 12:40 | 65.56628 | 11.87194 | 35207 ft | 413 kts | 24° |
| 2026-04-26 12:41 | 65.61429 | 11.94820 | 35188 ft | 413 kts | 24° |
| 2026-04-26 12:41 | 65.66212 | 12.02456 | 35188 ft | 412 kts | 24° |
| 2026-04-26 12:42 | 65.70993 | 12.10118 | 35181 ft | 412 kts | 25° |
| 2026-04-26 12:42 | 65.75761 | 12.17793 | 35185 ft | 411 kts | 25° |
| 2026-04-26 12:43 | 65.80534 | 12.25511 | 35173 ft | 412 kts | 24° |
| 2026-04-26 12:43 | 65.85299 | 12.33251 | 35166 ft | 412 kts | 25° |
| 2026-04-26 12:44 | 65.90065 | 12.41027 | 35155 ft | 412 kts | 25° |
| 2026-04-26 12:44 | 65.94798 | 12.48785 | 35156 ft | 412 kts | 25° |
| 2026-04-26 12:45 | 65.99590 | 12.56677 | 35152 ft | 412 kts | 25° |
| 2026-04-26 12:45 | 66.04308 | 12.64483 | 35149 ft | 412 kts | 25° |
| 2026-04-26 12:46 | 66.09060 | 12.72377 | 35163 ft | 413 kts | 25° |
| 2026-04-26 12:46 | 66.13819 | 12.80322 | 35143 ft | 413 kts | 25° |
| 2026-04-26 12:47 | 66.18573 | 12.88296 | 35153 ft | 413 kts | 25° |
| 2026-04-26 12:47 | 66.23325 | 12.96302 | 35127 ft | 413 kts | 25° |
| 2026-04-26 12:48 | 66.28076 | 13.04343 | 35129 ft | 414 kts | 25° |
| 2026-04-26 12:48 | 66.32835 | 13.12437 | 35121 ft | 414 kts | 25° |
| 2026-04-26 12:49 | 66.37578 | 13.20542 | 35138 ft | 414 kts | 26° |
| 2026-04-26 12:49 | 66.42334 | 13.28704 | 35123 ft | 416 kts | 26° |
| 2026-04-26 12:50 | 66.47094 | 13.36915 | 35128 ft | 416 kts | 26° |
| 2026-04-26 12:50 | 66.51844 | 13.45148 | 35109 ft | 415 kts | 26° |
| 2026-04-26 12:51 | 66.56584 | 13.53402 | 35090 ft | 415 kts | 26° |
| 2026-04-26 12:51 | 66.61266 | 13.61609 | 34827 ft | 404 kts | 26° |
| 2026-04-26 12:51 | 66.63544 | 13.65621 | 34615 ft | 395 kts | 27° |
| 2026-04-26 12:52 | 66.65792 | 13.69581 | 34237 ft | 393 kts | 27° |
| 2026-04-26 12:52 | 66.68027 | 13.73519 | 33834 ft | 391 kts | 26° |
| 2026-04-26 12:52 | 66.70245 | 13.77436 | 33399 ft | 388 kts | 26° |
| 2026-04-26 12:52 | 66.72449 | 13.81337 | 33012 ft | 385 kts | 26° |
| 2026-04-26 12:53 | 66.74633 | 13.85214 | 32617 ft | 381 kts | 25° |
| 2026-04-26 12:53 | 66.76786 | 13.89048 | 32274 ft | 377 kts | 25° |
| 2026-04-26 12:53 | 66.78923 | 13.92860 | 31897 ft | 373 kts | 25° |
| 2026-04-26 12:53 | 66.81012 | 13.96593 | 31540 ft | 371 kts | 24° |
| 2026-04-26 12:54 | 66.83112 | 14.00354 | 31179 ft | 367 kts | 24° |
| 2026-04-26 12:54 | 66.85190 | 14.04083 | 30839 ft | 364 kts | 23° |
| 2026-04-26 12:54 | 66.87246 | 14.07781 | 30487 ft | 361 kts | 23° |
| 2026-04-26 12:54 | 66.89287 | 14.11461 | 30121 ft | 358 kts | 22° |
| 2026-04-26 12:55 | 66.91305 | 14.15107 | 29755 ft | 353 kts | 22° |
| 2026-04-26 12:55 | 66.93295 | 14.18710 | 29385 ft | 349 kts | 23° |
| 2026-04-26 12:55 | 66.95266 | 14.22283 | 28994 ft | 345 kts | 23° |
| 2026-04-26 12:55 | 66.97212 | 14.25819 | 28638 ft | 342 kts | 23° |
| 2026-04-26 12:56 | 66.99138 | 14.29324 | 28305 ft | 337 kts | 23° |
| 2026-04-26 12:56 | 67.01033 | 14.32781 | 27938 ft | 334 kts | 23° |
| 2026-04-26 12:56 | 67.02911 | 14.36213 | 27607 ft | 330 kts | 23° |
| 2026-04-26 12:56 | 67.04773 | 14.39619 | 27269 ft | 326 kts | 23° |
| 2026-04-26 12:57 | 67.06611 | 14.42993 | 26923 ft | 324 kts | 23° |
| 2026-04-26 12:57 | 67.08434 | 14.46341 | 26590 ft | 321 kts | 23° |
| 2026-04-26 12:57 | 67.10240 | 14.49666 | 26286 ft | 318 kts | 23° |
| 2026-04-26 12:58 | 67.13815 | 14.56259 | 25620 ft | 315 kts | 24° |
| 2026-04-26 12:58 | 67.15583 | 14.59534 | 25299 ft | 312 kts | 24° |
| 2026-04-26 12:58 | 67.17335 | 14.62784 | 24965 ft | 308 kts | 24° |
| 2026-04-26 12:58 | 67.19065 | 14.66001 | 24675 ft | 306 kts | 24° |
| 2026-04-26 12:59 | 67.20783 | 14.69198 | 24362 ft | 303 kts | 24° |
| 2026-04-26 12:59 | 67.22489 | 14.72380 | 24066 ft | 301 kts | 24° |
| 2026-04-26 12:59 | 67.24182 | 14.75540 | 23760 ft | 300 kts | 25° |
| 2026-04-26 12:59 | 67.25864 | 14.78688 | 23404 ft | 298 kts | 25° |
| 2026-04-26 13:00 | 67.27531 | 14.81814 | 23066 ft | 294 kts | 25° |
| 2026-04-26 13:00 | 67.29177 | 14.84909 | 22765 ft | 291 kts | 25° |
| 2026-04-26 13:00 | 67.30806 | 14.87975 | 22459 ft | 288 kts | 25° |
| 2026-04-26 13:00 | 67.32426 | 14.91027 | 22150 ft | 287 kts | 25° |
| 2026-04-26 13:01 | 67.34041 | 14.94072 | 21869 ft | 290 kts | 26° |
| 2026-04-26 13:01 | 67.35709 | 14.97201 | 21558 ft | 302 kts | 26° |
| 2026-04-26 13:01 | 67.37430 | 15.00439 | 21186 ft | 307 kts | 27° |
| 2026-04-26 13:01 | 67.39149 | 15.03707 | 20900 ft | 305 kts | 27° |
| 2026-04-26 13:02 | 67.40851 | 15.06954 | 20562 ft | 302 kts | 27° |
| 2026-04-26 13:02 | 67.42539 | 15.10180 | 20236 ft | 300 kts | 27° |
| 2026-04-26 13:02 | 67.44211 | 15.13377 | 19923 ft | 297 kts | 28° |
| 2026-04-26 13:02 | 67.45869 | 15.16554 | 19609 ft | 295 kts | 28° |
| 2026-04-26 13:03 | 67.47515 | 15.19709 | 19307 ft | 293 kts | 28° |
| 2026-04-26 13:03 | 67.49150 | 15.22846 | 19022 ft | 291 kts | 29° |
| 2026-04-26 13:03 | 67.50780 | 15.25978 | 18703 ft | 291 kts | 30° |
| 2026-04-26 13:03 | 67.52402 | 15.29100 | 18389 ft | 289 kts | 30° |
| 2026-04-26 13:04 | 67.54000 | 15.32182 | 18043 ft | 288 kts | 30° |
| 2026-04-26 13:04 | 67.55605 | 15.35284 | 17720 ft | 286 kts | 30° |
| 2026-04-26 13:04 | 67.57202 | 15.38376 | 17408 ft | 284 kts | 30° |
| 2026-04-26 13:04 | 67.58781 | 15.41438 | 17117 ft | 282 kts | 31° |
| 2026-04-26 13:05 | 67.59849 | 15.43512 | 16900 ft | 284 kts | 31° |
| 2026-04-26 13:05 | 67.61421 | 15.46565 | 16607 ft | 286 kts | 31° |
| 2026-04-26 13:05 | 67.63070 | 15.49766 | 16293 ft | 295 kts | 31° |
| 2026-04-26 13:05 | 67.64733 | 15.53003 | 15979 ft | 299 kts | 32° |
| 2026-04-26 13:06 | 67.66378 | 15.56220 | 15643 ft | 298 kts | 32° |
| 2026-04-26 13:06 | 67.68030 | 15.59461 | 15333 ft | 295 kts | 32° |
| 2026-04-26 13:06 | 67.69669 | 15.62683 | 15023 ft | 293 kts | 33° |
| 2026-04-26 13:06 | 67.71300 | 15.65890 | 14687 ft | 292 kts | 33° |
| 2026-04-26 13:07 | 67.72922 | 15.69084 | 14392 ft | 291 kts | 33° |
| 2026-04-26 13:07 | 67.74538 | 15.72271 | 14078 ft | 290 kts | 33° |
| 2026-04-26 13:07 | 67.76150 | 15.75456 | 13756 ft | 289 kts | 34° |
| 2026-04-26 13:07 | 67.77753 | 15.78630 | 13449 ft | 287 kts | 33° |
| 2026-04-26 13:08 | 67.79351 | 15.81799 | 13100 ft | 286 kts | 33° |
| 2026-04-26 13:08 | 67.80941 | 15.84958 | 12782 ft | 285 kts | 33° |
| 2026-04-26 13:08 | 67.82519 | 15.88097 | 12477 ft | 283 kts | 33° |
| 2026-04-26 13:08 | 67.84087 | 15.91223 | 12171 ft | 282 kts | 33° |
| 2026-04-26 13:09 | 67.85649 | 15.94341 | 11878 ft | 280 kts | 33° |
| 2026-04-26 13:09 | 67.87203 | 15.97449 | 11551 ft | 279 kts | 33° |
| 2026-04-26 13:09 | 67.88745 | 16.00534 | 11254 ft | 277 kts | 33° |
| 2026-04-26 13:09 | 67.90275 | 16.03605 | 10964 ft | 276 kts | 33° |
| 2026-04-26 13:10 | 67.91805 | 16.06679 | 10678 ft | 275 kts | 33° |
| 2026-04-26 13:10 | 67.93328 | 16.09734 | 10362 ft | 274 kts | 32° |
| 2026-04-26 13:10 | 67.94959 | 16.12196 | 10144 ft | 265 kts | 20° |
| 2026-04-26 13:10 | 67.96633 | 16.14074 | 9986 ft | 258 kts | 18° |
| 2026-04-26 13:11 | 67.98299 | 16.15856 | 9685 ft | 257 kts | 18° |
| 2026-04-26 13:11 | 67.99952 | 16.17639 | 9409 ft | 255 kts | 18° |
| 2026-04-26 13:11 | 68.01583 | 16.19427 | 9172 ft | 252 kts | 19° |
| 2026-04-26 13:11 | 68.03200 | 16.21220 | 8897 ft | 251 kts | 19° |
| 2026-04-26 13:12 | 68.04801 | 16.23014 | 8644 ft | 248 kts | 19° |
| 2026-04-26 13:12 | 68.06357 | 16.24768 | 8394 ft | 247 kts | 19° |
| 2026-04-26 13:12 | 68.07939 | 16.26562 | 8126 ft | 247 kts | 19° |
| 2026-04-26 13:12 | 68.09460 | 16.28292 | 7856 ft | 246 kts | 19° |
| 2026-04-26 13:13 | 68.10999 | 16.30048 | 7601 ft | 244 kts | 19° |
| 2026-04-26 13:13 | 68.12556 | 16.31828 | 7363 ft | 242 kts | 20° |
| 2026-04-26 13:13 | 68.14080 | 16.33578 | 7253 ft | 235 kts | 20° |
| 2026-04-26 13:13 | 68.15566 | 16.35286 | 7127 ft | 229 kts | 20° |
| 2026-04-26 13:14 | 68.17001 | 16.36940 | 7047 ft | 221 kts | 19° |
| 2026-04-26 13:14 | 68.18383 | 16.38565 | 6839 ft | 220 kts | 22° |
| 2026-04-26 13:14 | 68.19779 | 16.40485 | 6609 ft | 225 kts | 24° |
| 2026-04-26 13:14 | 68.21177 | 16.42477 | 6332 ft | 229 kts | 24° |
| 2026-04-26 13:15 | 68.22571 | 16.44469 | 6033 ft | 230 kts | 24° |
| 2026-04-26 13:15 | 68.24004 | 16.46516 | 5730 ft | 230 kts | 24° |
| 2026-04-26 13:15 | 68.25398 | 16.48502 | 5433 ft | 228 kts | 24° |
| 2026-04-26 13:15 | 68.26788 | 16.50480 | 5218 ft | 225 kts | 24° |
| 2026-04-26 13:16 | 68.28157 | 16.52426 | 4950 ft | 220 kts | 24° |
| 2026-04-26 13:16 | 68.29501 | 16.54338 | 4684 ft | 215 kts | 24° |
| 2026-04-26 13:16 | 68.30799 | 16.56188 | 4367 ft | 207 kts | 24° |
| 2026-04-26 13:16 | 68.32040 | 16.57961 | 4123 ft | 196 kts | 24° |
| 2026-04-26 13:17 | 68.34280 | 16.60668 | 3703 ft | 155 kts | 7° |
| 2026-04-26 13:17 | 68.35314 | 16.61252 | 3357 ft | 143 kts | 10° |
| 2026-04-26 13:18 | 68.37158 | 16.62347 | 3058 ft | 139 kts | 9° |
| 2026-04-26 13:18 | 68.38097 | 16.63070 | 2688 ft | 141 kts | 16° |
| 2026-04-26 13:18 | 68.39879 | 16.65133 | 2171 ft | 134 kts | 17° |
| 2026-04-26 13:19 | 68.40745 | 16.65978 | 1917 ft | 135 kts | 14° |
| 2026-04-26 13:19 | 68.41653 | 16.66696 | 1643 ft | 135 kts | 11° |
| 2026-04-26 13:19 | 68.42550 | 16.67330 | 1425 ft | 131 kts | 8° |
| 2026-04-26 13:19 | 68.43439 | 16.67770 | 1236 ft | 129 kts | 4° |
| 2026-04-26 13:20 | 68.44327 | 16.68101 | 1042 ft | 130 kts | 3° |
| 2026-04-26 13:20 | 68.45221 | 16.68272 | 726 ft | 127 kts | 359° |
| 2026-04-26 13:20 | 68.46116 | 16.68214 | 517 ft | 130 kts | 356° |
| 2026-04-26 13:20 | 68.47006 | 16.68117 | 325 ft | 123 kts | 353° |
| 2026-04-26 13:21 | 68.47852 | 16.67970 | 124 ft | 122 kts | 355° |
| 2026-04-26 13:21 | 68.48397 | 16.67900 | 101 ft | 116 kts | 356° |
| 2026-04-26 13:21 | 68.49577 | 16.67787 | 1081 ft | 134 kts | 356° |
| 2026-04-26 13:21 | 68.50682 | 16.67694 | 1531 ft | 184 kts | 357° |
| 2026-04-26 13:22 | 68.51992 | 16.67577 | 2268 ft | 195 kts | 356° |
| 2026-04-26 13:22 | 68.53367 | 16.67353 | 2619 ft | 203 kts | 348° |
| 2026-04-26 13:22 | 68.54605 | 16.65340 | 2905 ft | 226 kts | 310° |
| 2026-04-26 13:22 | 68.55225 | 16.61202 | 2897 ft | 245 kts | 279° |
| 2026-04-26 13:23 | 68.54944 | 16.56600 | 3309 ft | 249 kts | 247° |
| 2026-04-26 13:23 | 68.53842 | 16.53091 | 4555 ft | 244 kts | 215° |
| 2026-04-26 13:23 | 68.52247 | 16.51605 | 5634 ft | 245 kts | 192° |
| 2026-04-26 13:23 | 68.50559 | 16.50953 | 6497 ft | 246 kts | 190° |
| 2026-04-26 13:24 | 68.48845 | 16.50353 | 7081 ft | 250 kts | 190° |
| 2026-04-26 13:24 | 68.47120 | 16.49736 | 7184 ft | 251 kts | 190° |
| 2026-04-26 13:24 | 68.45390 | 16.49088 | 7201 ft | 252 kts | 191° |
| 2026-04-26 13:24 | 68.43657 | 16.48412 | 7209 ft | 252 kts | 191° |
| 2026-04-26 13:25 | 68.41924 | 16.47719 | 7204 ft | 252 kts | 191° |
| 2026-04-26 13:25 | 68.40192 | 16.47019 | 7211 ft | 252 kts | 191° |
| 2026-04-26 13:25 | 68.38452 | 16.46313 | 7215 ft | 253 kts | 191° |
| 2026-04-26 13:25 | 68.36695 | 16.45974 | 7183 ft | 256 kts | 172° |
| 2026-04-26 13:26 | 68.35106 | 16.47861 | 7088 ft | 243 kts | 137° |
| 2026-04-26 13:26 | 68.34131 | 16.51423 | 6444 ft | 241 kts | 109° |
| 2026-04-26 13:26 | 68.33878 | 16.55911 | 5679 ft | 239 kts | 79° |
| 2026-04-26 13:26 | 68.34362 | 16.59923 | 5287 ft | 220 kts | 50° |
| 2026-04-26 13:27 | 68.35547 | 16.62264 | 4625 ft | 206 kts | 11° |
| 2026-04-26 13:27 | 68.36950 | 16.63067 | 3719 ft | 211 kts | 12° |
| 2026-04-26 13:27 | 68.38342 | 16.64571 | 2829 ft | 219 kts | 24° |
| 2026-04-26 13:27 | 68.39678 | 16.66300 | 2282 ft | 207 kts | 19° |
| 2026-04-26 13:28 | 68.41003 | 16.67527 | 1668 ft | 197 kts | 8° |
| 2026-04-26 13:28 | 68.42284 | 16.68091 | 1308 ft | 177 kts | 358° |
| 2026-04-26 13:28 | 68.43448 | 16.68196 | 1128 ft | 154 kts | 359° |
| 2026-04-26 13:28 | 68.44460 | 16.68292 | 960 ft | 134 kts | 0° |
| 2026-04-26 13:29 | 68.45354 | 16.68284 | 737 ft | 126 kts | 354° |
| 2026-04-26 13:29 | 68.45934 | 16.68195 | 565 ft | 126 kts | 356° |
| 2026-04-26 13:29 | 68.47102 | 16.68063 | 307 ft | 123 kts | 355° |
| 2026-04-26 13:29 | 68.47940 | 16.67956 | 112 ft | 120 kts | 355° |
| 2026-04-26 13:30 | 68.48676 | 16.67868 | 94 ft | 79 kts | 357° |
| 2026-04-26 13:30 | 68.48895 | 16.67976 | 92 ft | 17 kts | 94° |
| 2026-04-26 13:30 | 68.48892 | 16.68316 | 89 ft | 14 kts | 89° |
| 2026-04-26 13:30 | 68.48892 | 16.68492 | 92 ft | 5 kts | 89° |
| 2026-04-26 13:31 | 68.48894 | 16.68640 | 92 ft | 14 kts | 88° |
| 2026-04-26 13:31 | 68.48929 | 16.68817 | 94 ft | 7 kts | 6° |
| 2026-04-26 13:31 | 68.48969 | 16.68815 | 91 ft | 4 kts | 358° |
| 2026-04-26 13:31 | 68.48979 | 16.68814 | 80 ft | 1 kts | 358° |
| 2026-04-26 13:32 | 68.48981 | 16.68814 | 77 ft | 0 kts | 358° |
| 2026-04-26 13:32 | 68.48982 | 16.68814 | 77 ft | 0 kts | 358° |
| 2026-04-26 13:47 | 68.48972 | 16.68815 | 92 ft | 4 kts | 358° |
| 2026-04-26 13:47 | 68.48945 | 16.68818 | 90 ft | 4 kts | 358° |
| 2026-04-26 13:48 | 68.48918 | 16.68820 | 90 ft | 4 kts | 358° |
| 2026-04-26 13:48 | 68.48900 | 16.68822 | 90 ft | 0 kts | 358° |
| 2026-04-26 13:50 | 68.48903 | 16.68811 | 89 ft | 1 kts | 308° |
| 2026-04-26 13:50 | 68.48897 | 16.68721 | 92 ft | 10 kts | 261° |
| 2026-04-26 13:51 | 68.48893 | 16.68463 | 91 ft | 16 kts | 269° |
| 2026-04-26 13:51 | 68.48848 | 16.68219 | 86 ft | 16 kts | 185° |
| 2026-04-26 13:51 | 68.48735 | 16.68224 | 87 ft | 17 kts | 177° |
| 2026-04-26 13:51 | 68.48611 | 16.68240 | 93 ft | 18 kts | 176° |
| 2026-04-26 13:52 | 68.48491 | 16.68254 | 100 ft | 18 kts | 178° |
| 2026-04-26 13:52 | 68.48342 | 16.68271 | 101 ft | 25 kts | 177° |
| 2026-04-26 13:52 | 68.48228 | 16.68285 | 102 ft | 24 kts | 177° |
| 2026-04-26 13:52 | 68.48066 | 16.68305 | 100 ft | 23 kts | 177° |
| 2026-04-26 13:53 | 68.47925 | 16.68297 | 99 ft | 18 kts | 212° |
| 2026-04-26 13:53 | 68.47929 | 16.67955 | 91 ft | 19 kts | 338° |
| 2026-04-26 13:53 | 68.48123 | 16.67927 | 93 ft | 51 kts | 358° |
| 2026-04-26 13:53 | 68.48729 | 16.67861 | 92 ft | 120 kts | 358° |
| 2026-04-26 13:54 | 68.49738 | 16.67754 | 282 ft | 158 kts | 358° |
| 2026-04-26 13:54 | 68.50845 | 16.67667 | 1171 ft | 157 kts | 358° |
| 2026-04-26 13:54 | 68.51942 | 16.67577 | 2127 ft | 163 kts | 356° |